HSSS

Khartoum International Airport

Khartoum, Sudan
METAR HSSS 231600Z 01005KT CAVOK 38/03 Q1004 NOSIG
Observed Flight Rules
Feb-23 @ 16:00 UTC (37 minutes ago) Visual Flight Rules
Wind Visibility Clouds
10° at 5 knots 10,000+ meters
  • Clear skies
Temperatures Readings
Current 38°C / 100°F
Dewpoint 3°C / 37°F
Humidity 11%
Altimeter 29.65" Hg
Pressure 1004 hPa
Elevation 380
METAR HSSS 231600Z 01005KT CAVOK 38/03 Q1004 NOSIG
Observed Flight Rules
Feb-23 @ 16:00 UTC
(37 minutes ago)
VFR
Wind Visibility
10° at 5 knots 10,000+ meters
Clouds
  • Clear skies
Temperature Dewpoint
38°C / 100°F 3°C / 37°F
Humidity Altimeter Pressure
11% 29.65" Hg 1004 hPa